createdAt,value
2023-05-07T00:00:27.070Z,83.39
2023-05-07T00:02:07.468Z,83.43
2023-05-07T00:03:48.015Z,83.63
2023-05-07T00:05:28.332Z,83.57
2023-05-07T00:07:08.758Z,83.48
2023-05-07T00:08:49.210Z,83.46
2023-05-07T00:10:29.682Z,83.48
2023-05-07T00:12:10.038Z,83.36
2023-05-07T00:13:50.478Z,83.53
2023-05-07T00:15:30.889Z,83.37
2023-05-07T00:17:11.229Z,83.56
2023-05-07T00:18:51.608Z,83.64
2023-05-07T00:20:33.145Z,83.6
2023-05-07T00:22:12.413Z,83.78
2023-05-07T00:23:52.767Z,83.68
2023-05-07T00:25:33.142Z,83.64
2023-05-07T00:27:13.545Z,83.71
2023-05-07T00:28:53.888Z,83.65
2023-05-07T00:30:34.242Z,83.59
2023-05-07T00:32:14.754Z,83.65
2023-05-07T00:33:55.072Z,83.79
2023-05-07T00:35:35.531Z,83.79
2023-05-07T00:37:15.889Z,83.84
2023-05-07T00:38:56.407Z,83.84
2023-05-07T00:40:36.761Z,83.74
2023-05-07T00:42:17.202Z,83.74
2023-05-07T00:43:57.614Z,83.94
2023-05-07T00:45:38.075Z,83.9
2023-05-07T00:47:18.471Z,83.95
2023-05-07T00:48:58.933Z,83.86
2023-05-07T00:50:39.210Z,83.85
2023-05-07T00:52:19.666Z,83.78
2023-05-07T00:54:00.036Z,83.8
2023-05-07T00:55:40.453Z,83.77
2023-05-07T00:57:20.783Z,83.8
2023-05-07T00:59:01.329Z,84.09
2023-05-07T01:00:41.651Z,83.83
2023-05-07T01:02:22.158Z,84.01
2023-05-07T01:04:02.491Z,83.93
2023-05-07T01:05:42.889Z,83.94
2023-05-07T01:07:23.273Z,83.89
2023-05-07T01:09:03.733Z,83.87
2023-05-07T01:10:44.218Z,83.86
2023-05-07T01:12:24.577Z,84.03
2023-05-07T01:14:04.916Z,84
2023-05-07T01:15:45.335Z,84.03
2023-05-07T01:17:25.873Z,84.06
2023-05-07T01:19:06.185Z,84.01
2023-05-07T01:20:46.572Z,84.03
2023-05-07T01:22:27.003Z,84.17
2023-05-07T01:24:07.437Z,84.1
2023-05-07T01:25:47.842Z,84.25
2023-05-07T01:27:28.183Z,84.21
2023-05-07T01:29:08.636Z,84.19
2023-05-07T01:30:49.077Z,84.38
2023-05-07T01:32:29.492Z,84.36
2023-05-07T01:34:09.945Z,84.43
2023-05-07T01:35:50.319Z,84.47
2023-05-07T01:37:30.728Z,84.29
2023-05-07T01:39:11.111Z,84.47
2023-05-07T01:40:51.635Z,84.62
2023-05-07T01:42:32.033Z,84.38
2023-05-07T01:44:12.458Z,84.37
2023-05-07T01:45:52.905Z,84.45
2023-05-07T01:47:33.306Z,84.43
2023-05-07T01:49:13.675Z,84.36
2023-05-07T01:50:54.084Z,84.36
2023-05-07T01:52:34.511Z,84.42
2023-05-07T01:54:14.909Z,84.48
2023-05-07T01:55:55.350Z,84.62
2023-05-07T01:57:35.752Z,84.64
2023-05-07T01:59:16.115Z,84.86
2023-05-07T02:00:56.398Z,84.74
2023-05-07T02:02:36.955Z,84.73
2023-05-07T02:05:57.787Z,84.78
2023-05-07T02:07:38.258Z,84.89
2023-05-07T02:09:18.887Z,84.87
2023-05-07T02:10:59.097Z,84.5
2023-05-07T02:12:39.572Z,84.61
2023-05-07T02:14:19.925Z,84.5
2023-05-07T02:16:00.419Z,84.61
2023-05-07T02:17:40.745Z,84.34
2023-05-07T02:19:21.093Z,84.55
2023-05-07T02:21:01.530Z,84.78
2023-05-07T02:22:41.914Z,84.55
2023-05-07T02:24:22.340Z,84.54
2023-05-07T02:26:02.789Z,84.54
2023-05-07T02:27:43.142Z,84.47
2023-05-07T02:29:23.566Z,84.54
2023-05-07T02:31:03.901Z,84.48
2023-05-07T02:32:44.361Z,84.72
2023-05-07T02:34:24.704Z,84.63
2023-05-07T02:36:05.134Z,85.09
2023-05-07T02:37:45.514Z,84.88
2023-05-07T02:39:25.897Z,84.79
2023-05-07T02:41:06.276Z,85.07
2023-05-07T02:42:46.898Z,85.2
2023-05-07T02:44:27.060Z,85.34
2023-05-07T02:46:07.580Z,85.69
2023-05-07T02:47:47.902Z,85.12
2023-05-07T02:49:28.335Z,85.46
2023-05-07T02:51:08.779Z,85.61
2023-05-07T02:52:49.205Z,85.53
2023-05-07T02:54:29.628Z,85.69
2023-05-07T02:56:10.032Z,85.76
2023-05-07T02:57:50.421Z,85.74
2023-05-07T02:59:30.882Z,85.94
2023-05-07T03:01:11.323Z,86.08
2023-05-07T03:02:51.681Z,86.16
2023-05-07T03:04:32.136Z,86.16
2023-05-07T03:06:12.413Z,86.28
2023-05-07T03:07:52.839Z,86.03
2023-05-07T03:09:33.273Z,86.25
2023-05-07T03:11:13.668Z,86.21
2023-05-07T03:12:54.138Z,86.24
2023-05-07T03:14:34.493Z,86.25
2023-05-07T03:16:14.923Z,86.07
2023-05-07T03:17:55.474Z,86.02
2023-05-07T03:19:35.766Z,86.13
2023-05-07T03:21:16.123Z,85.93
2023-05-07T03:22:56.530Z,85.99
2023-05-07T03:24:36.993Z,85.97
2023-05-07T03:26:17.449Z,85.86
2023-05-07T03:27:57.902Z,85.92
2023-05-07T03:29:38.257Z,85.94
2023-05-07T03:31:18.633Z,85.61
2023-05-07T03:32:59.099Z,85.92
2023-05-07T03:34:39.435Z,86.02
2023-05-07T03:36:19.801Z,86.06
2023-05-07T03:38:00.189Z,86.25
2023-05-07T03:39:40.594Z,86.27
2023-05-07T03:41:21.073Z,86.42
2023-05-07T03:43:01.412Z,86.42
2023-05-07T03:44:41.855Z,86.47
2023-05-07T03:46:22.262Z,86.42
2023-05-07T03:48:02.566Z,86.43
2023-05-07T03:49:42.978Z,86.54
2023-05-07T03:51:23.366Z,86.49
2023-05-07T03:53:03.736Z,86.5
2023-05-07T03:54:44.123Z,86.44
2023-05-07T03:56:24.546Z,86.34
2023-05-07T03:58:04.911Z,86.23
2023-05-07T03:59:45.358Z,86.49
2023-05-07T04:01:25.706Z,86.43
2023-05-07T04:03:06.118Z,86.53
2023-05-07T04:04:46.484Z,86.55
2023-05-07T04:06:26.965Z,86.39
2023-05-07T04:08:07.407Z,86.54
2023-05-07T04:09:47.818Z,86.69
2023-05-07T04:11:28.319Z,87.08
2023-05-07T04:13:08.857Z,87.3
2023-05-07T04:14:49.215Z,87.46
2023-05-07T04:16:29.636Z,87.67
2023-05-07T04:18:10.009Z,87.86
2023-05-07T04:19:50.390Z,87.56
2023-05-07T04:21:30.853Z,87.64
2023-05-07T04:23:11.300Z,87.92
2023-05-07T04:24:51.650Z,87.43
2023-05-07T04:26:32.114Z,87.37
2023-05-07T04:28:12.602Z,87.66
2023-05-07T04:29:52.913Z,87.99
2023-05-07T04:31:33.285Z,87.92
2023-05-07T04:33:13.721Z,87.91
2023-05-07T04:34:54.125Z,87.86
2023-05-07T04:36:34.558Z,87.48
2023-05-07T04:38:14.955Z,87.88
2023-05-07T04:39:55.328Z,87.83
2023-05-07T04:41:35.838Z,87.88
2023-05-07T04:43:16.124Z,87.46
2023-05-07T04:44:56.596Z,87.25
2023-05-07T04:46:37.050Z,87.51
2023-05-07T04:48:17.514Z,87.36
2023-05-07T04:49:57.882Z,87.61
2023-05-07T04:51:38.349Z,87.9
2023-05-07T04:53:18.809Z,87.72
2023-05-07T04:54:59.238Z,87.64
2023-05-07T04:56:39.673Z,87.66
2023-05-07T04:58:20.064Z,87.4
2023-05-07T05:00:00.586Z,86.98
2023-05-07T05:01:41.011Z,86.83
2023-05-07T05:03:21.555Z,87.28
2023-05-07T05:05:01.762Z,87.34
2023-05-07T05:06:42.189Z,87.16
2023-05-07T05:08:22.551Z,87.22
2023-05-07T05:10:02.973Z,87.22
2023-05-07T05:11:43.388Z,87.27
2023-05-07T05:13:23.734Z,86.99
2023-05-07T05:15:04.073Z,86.95
2023-05-07T05:16:44.414Z,86.59
2023-05-07T05:18:24.829Z,86.63
2023-05-07T05:20:05.175Z,86.67
2023-05-07T05:21:45.633Z,86.99
2023-05-07T05:23:26.062Z,86.82
2023-05-07T05:25:06.538Z,86.79
2023-05-07T05:26:46.871Z,86.51
2023-05-07T05:28:27.217Z,86.27
2023-05-07T05:30:07.628Z,86.44
2023-05-07T05:31:48.082Z,86.52
2023-05-07T05:33:28.392Z,86.12
2023-05-07T05:35:08.876Z,86.02
2023-05-07T05:36:49.237Z,86.12
2023-05-07T05:38:29.719Z,85.83
2023-05-07T05:40:10.328Z,85.69
2023-05-07T05:41:50.663Z,85.8
2023-05-07T05:43:31.072Z,85.83
2023-05-07T05:45:11.474Z,85.7
2023-05-07T05:46:51.964Z,85.38
2023-05-07T05:48:32.277Z,85.28
2023-05-07T05:50:13.039Z,84.54
2023-05-07T05:51:53.244Z,84.7
2023-05-07T05:53:33.694Z,84.74
2023-05-07T05:55:14.183Z,84.7
2023-05-07T05:56:54.571Z,84.25
2023-05-07T05:58:34.939Z,84.67
2023-05-07T06:00:15.293Z,84.28
2023-05-07T06:01:55.714Z,84.28
2023-05-07T06:03:36.071Z,84
2023-05-07T06:05:16.592Z,83.98
2023-05-07T06:06:56.891Z,83.45
2023-05-07T06:08:37.270Z,83.74
2023-05-07T06:10:17.625Z,83.06
2023-05-07T06:12:00.357Z,82.93
2023-05-07T06:13:38.422Z,82.95
2023-05-07T06:15:18.927Z,82.01
2023-05-07T06:16:59.342Z,82.05
2023-05-07T06:18:39.779Z,82.48
2023-05-07T06:20:20.248Z,82.25
2023-05-07T06:22:00.745Z,81.85
2023-05-07T06:23:41.055Z,81.64
2023-05-07T06:25:21.529Z,81.75
2023-05-07T06:27:01.938Z,81.35
2023-05-07T06:28:42.292Z,81.19
2023-05-07T06:30:22.686Z,81.61
2023-05-07T06:32:03.067Z,80.95
2023-05-07T06:33:43.481Z,80.97
2023-05-07T06:35:23.954Z,80.55
2023-05-07T06:37:04.442Z,80.58
2023-05-07T06:38:44.845Z,80.7
2023-05-07T06:40:25.316Z,81.14
2023-05-07T06:42:05.877Z,80.83
2023-05-07T06:43:46.189Z,81.03
2023-05-07T06:45:26.614Z,81.02
2023-05-07T06:47:06.922Z,81.07
2023-05-07T06:48:47.364Z,80.74
2023-05-07T06:50:27.839Z,80.31
2023-05-07T06:52:08.214Z,80.58
2023-05-07T06:53:48.624Z,80.59
2023-05-07T06:55:29.059Z,80.29
2023-05-07T06:57:09.506Z,80.12
2023-05-07T06:58:49.905Z,80.45
2023-05-07T07:00:30.316Z,80.62
2023-05-07T07:02:10.770Z,80.74
2023-05-07T07:03:51.158Z,80.78
2023-05-07T07:05:31.509Z,80.5
2023-05-07T07:07:12.102Z,80.56
2023-05-07T07:08:52.462Z,80.55
2023-05-07T07:10:32.893Z,80.53
2023-05-07T07:12:13.310Z,80.5
2023-05-07T07:13:53.796Z,80.98
2023-05-07T07:15:34.223Z,80.74
2023-05-07T07:17:14.618Z,80.92
2023-05-07T07:18:55.096Z,80.78
2023-05-07T07:20:35.474Z,80.54
2023-05-07T07:22:15.908Z,79.77
2023-05-07T07:23:56.281Z,80.28
2023-05-07T07:25:36.747Z,79.97
2023-05-07T07:27:17.193Z,80.59
2023-05-07T07:28:57.535Z,80.22
2023-05-07T07:30:37.973Z,80.08
2023-05-07T07:32:18.424Z,79.88
2023-05-07T07:33:58.786Z,80.42
2023-05-07T07:35:39.273Z,80.32
2023-05-07T07:37:19.691Z,80.51
2023-05-07T07:39:00.101Z,80.5
2023-05-07T07:40:40.510Z,80.34
2023-05-07T07:42:20.979Z,80.41
2023-05-07T07:44:01.388Z,80.14
2023-05-07T07:45:41.771Z,79.94
2023-05-07T07:47:22.110Z,79.32
2023-05-07T07:49:02.606Z,79.91
2023-05-07T07:50:45.670Z,79.16
2023-05-07T07:52:23.383Z,79.43
2023-05-07T07:54:03.962Z,79.49
2023-05-07T07:55:44.278Z,79.53
2023-05-07T07:57:24.672Z,79.75
2023-05-07T07:59:05.117Z,80.32
2023-05-07T08:00:45.437Z,79.08
2023-05-07T08:02:26.024Z,78.92
2023-05-07T08:04:06.400Z,78.5
2023-05-07T08:05:46.693Z,78.6
2023-05-07T08:07:27.096Z,78.85
2023-05-07T08:09:07.503Z,78.69
2023-05-07T08:10:47.983Z,78.43
2023-05-07T08:12:28.418Z,78.1
2023-05-07T08:14:08.849Z,77.71
2023-05-07T08:15:49.232Z,76.62
2023-05-07T08:17:29.685Z,76.39
2023-05-07T08:19:10.015Z,76.12
2023-05-07T08:20:50.476Z,76.62
2023-05-07T08:22:30.931Z,76.72
2023-05-07T08:24:11.296Z,76.83
2023-05-07T08:25:51.758Z,76.09
2023-05-07T08:27:32.162Z,76.42
2023-05-07T08:29:12.649Z,76.58
2023-05-07T08:30:53.190Z,76.36
2023-05-07T08:32:33.501Z,76.19
2023-05-07T08:34:13.957Z,76.11
2023-05-07T08:35:54.356Z,74.18
2023-05-07T08:37:34.736Z,74.23
2023-05-07T08:39:15.054Z,74.21
2023-05-07T08:40:55.363Z,74.74
2023-05-07T08:42:35.773Z,75.52
2023-05-07T08:44:16.130Z,74.83
2023-05-07T08:45:56.719Z,74.66
2023-05-07T08:47:37.123Z,73.13
2023-05-07T08:49:17.525Z,74.17
2023-05-07T08:50:57.893Z,73.92
2023-05-07T08:52:38.297Z,74.16
2023-05-07T08:54:18.723Z,74.59
2023-05-07T08:55:59.123Z,73.86
2023-05-07T08:57:40.366Z,74.82
2023-05-07T08:59:19.993Z,75.22
2023-05-07T09:01:00.449Z,75.28
2023-05-07T09:02:40.946Z,75.74
2023-05-07T09:04:21.380Z,74.95
2023-05-07T09:06:01.770Z,75.16
2023-05-07T09:07:42.188Z,76.11
2023-05-07T09:09:22.630Z,76.52
2023-05-07T09:11:03.069Z,76.28
2023-05-07T09:12:43.573Z,76.11
2023-05-07T09:14:23.818Z,76.38
2023-05-07T09:16:04.232Z,76.29
2023-05-07T09:17:44.476Z,76.91
2023-05-07T09:19:24.748Z,77.42
2023-05-07T09:21:05.093Z,77.43
2023-05-07T09:22:45.638Z,77.71
2023-05-07T09:24:26.034Z,77.68
2023-05-07T09:26:07.357Z,77.78
2023-05-07T09:27:46.970Z,77.69
2023-05-07T09:29:27.406Z,77.4
2023-05-07T09:31:07.842Z,77.72
2023-05-07T09:32:48.277Z,77.09
2023-05-07T09:34:28.556Z,77.68
2023-05-07T09:36:08.987Z,77.45
2023-05-07T09:37:49.399Z,77.63
2023-05-07T09:39:29.788Z,76.13
2023-05-07T09:41:10.161Z,77.01
2023-05-07T09:42:50.573Z,75.84
2023-05-07T09:44:30.947Z,74.94
2023-05-07T09:46:11.406Z,74.91
2023-05-07T09:47:51.842Z,74.65
2023-05-07T09:49:32.176Z,74.97
2023-05-07T09:51:12.621Z,74.16
2023-05-07T09:52:53.019Z,74.38
2023-05-07T09:54:33.461Z,73.33
2023-05-07T09:56:13.914Z,73.41
2023-05-07T09:57:54.264Z,73.55
2023-05-07T09:59:34.658Z,73.32
2023-05-07T10:01:15.218Z,72.3
2023-05-07T10:02:55.563Z,73.09
2023-05-07T10:04:35.772Z,71.71
2023-05-07T10:06:16.187Z,71.85
2023-05-07T10:07:56.617Z,71.41
2023-05-07T10:09:37.024Z,71.97
2023-05-07T10:11:17.424Z,71.56
2023-05-07T10:12:57.862Z,70.66
2023-05-07T10:14:38.311Z,71.67
2023-05-07T10:16:18.710Z,70.83
2023-05-07T10:17:59.151Z,71.37
2023-05-07T10:19:39.504Z,70.28
2023-05-07T10:21:19.908Z,70.59
2023-05-07T10:23:00.292Z,70.44
2023-05-07T10:24:40.740Z,71.29
2023-05-07T10:26:21.163Z,70.19
2023-05-07T10:28:01.593Z,71.06
2023-05-07T10:29:41.968Z,70.4
2023-05-07T10:31:22.464Z,70.44
2023-05-07T10:33:02.833Z,70.24
2023-05-07T10:34:43.254Z,69.67
2023-05-07T10:36:23.575Z,70.26
2023-05-07T10:38:03.886Z,69.4
2023-05-07T10:39:44.335Z,68.07
2023-05-07T10:41:24.671Z,69.07
2023-05-07T10:43:06.001Z,68.96
2023-05-07T10:44:45.526Z,67.96
2023-05-07T10:46:25.935Z,67.97
2023-05-07T10:48:13.777Z,67.19
2023-05-07T10:49:46.723Z,67.03
2023-05-07T10:51:27.126Z,67.37
2023-05-07T10:53:07.584Z,67.59
2023-05-07T10:54:50.983Z,66.75
2023-05-07T10:56:28.322Z,65.79
2023-05-07T10:58:10.522Z,65.68
2023-05-07T10:59:49.255Z,66.14
2023-05-07T11:01:29.602Z,65.45
2023-05-07T11:03:10.012Z,65.1
2023-05-07T11:04:50.408Z,64.29
2023-05-07T11:06:30.762Z,63.88
2023-05-07T11:08:11.202Z,63.21
2023-05-07T11:09:51.611Z,62.24
2023-05-07T11:11:33.020Z,64.05
2023-05-07T11:13:12.531Z,62.55
2023-05-07T11:14:52.797Z,62.59
2023-05-07T11:16:33.276Z,60.5
2023-05-07T11:18:13.740Z,62.2
2023-05-07T11:19:53.978Z,61.38
2023-05-07T11:21:34.335Z,60.05
2023-05-07T11:23:14.670Z,60.68
2023-05-07T11:24:54.980Z,60.7
2023-05-07T11:26:35.357Z,59.71
2023-05-07T11:28:15.810Z,60.2
2023-05-07T11:29:56.214Z,60.95
2023-05-07T11:31:36.696Z,58.63
2023-05-07T11:33:17.071Z,60.3
2023-05-07T11:34:57.417Z,58.74
2023-05-07T11:36:37.867Z,60.17
2023-05-07T11:38:18.302Z,59.45
2023-05-07T11:39:58.729Z,60.59
2023-05-07T11:41:39.077Z,61.66
2023-05-07T11:43:19.451Z,58.91
2023-05-07T11:44:59.893Z,59.8
2023-05-07T11:46:40.394Z,58.79
2023-05-07T11:48:20.792Z,59.53
2023-05-07T11:50:01.234Z,59.1
2023-05-07T11:51:41.633Z,60.59
2023-05-07T11:53:22.017Z,61.45
2023-05-07T11:55:02.450Z,61.27
2023-05-07T11:56:42.883Z,61.75
2023-05-07T11:58:23.248Z,61.51
2023-05-07T12:00:03.658Z,61.88
2023-05-07T12:01:47.161Z,62.19
2023-05-07T12:03:24.616Z,61.42
2023-05-07T12:05:04.872Z,61.55
2023-05-07T12:06:45.264Z,62.52
2023-05-07T12:08:25.635Z,61.58
2023-05-07T12:10:06.105Z,61.73
2023-05-07T12:11:46.424Z,61.53
2023-05-07T12:13:27.039Z,61.42
2023-05-07T12:15:07.190Z,60.46
2023-05-07T12:16:47.683Z,61.51
2023-05-07T12:18:28.031Z,57.15
2023-05-07T12:20:08.469Z,59.62
2023-05-07T12:21:48.898Z,60.13
2023-05-07T12:23:29.325Z,54.52
2023-05-07T12:25:10.028Z,55.07
2023-05-07T12:26:50.203Z,54.29
2023-05-07T12:28:30.647Z,54.05
2023-05-07T12:30:11.117Z,54.26
2023-05-07T12:31:51.444Z,55.05
2023-05-07T12:33:31.835Z,53.55
2023-05-07T12:35:12.512Z,53.1
2023-05-07T12:36:52.662Z,53.28
2023-05-07T12:38:33.090Z,54.05
2023-05-07T12:40:13.542Z,55.92
2023-05-07T12:41:54.004Z,54.76
2023-05-07T12:43:34.427Z,53.98
2023-05-07T12:45:15.196Z,54.62
2023-05-07T12:46:55.344Z,57.58
2023-05-07T12:48:35.686Z,55.68
2023-05-07T12:50:16.157Z,56.59
2023-05-07T12:51:56.503Z,56.2
2023-05-07T12:53:36.873Z,58.81
2023-05-07T12:55:17.262Z,56.32
2023-05-07T12:56:57.587Z,53.87
2023-05-07T12:58:37.926Z,53.8
2023-05-07T13:00:18.326Z,53.08
2023-05-07T13:01:58.694Z,54.22
2023-05-07T13:03:39.323Z,54.14
2023-05-07T13:05:22.560Z,53.08
2023-05-07T13:07:02.949Z,55.43
2023-05-07T13:08:40.330Z,53.3
2023-05-07T13:10:20.764Z,54.23
2023-05-07T13:12:01.178Z,49.46
2023-05-07T13:13:41.649Z,52.79
2023-05-07T13:15:22.065Z,49.53
2023-05-07T13:17:02.477Z,49.53
2023-05-07T13:18:42.994Z,50.68
2023-05-07T13:20:23.225Z,49.51
2023-05-07T13:22:03.595Z,51.26
2023-05-07T13:23:44.032Z,50.29
2023-05-07T13:25:24.471Z,51.94
2023-05-07T13:27:04.876Z,50.52
2023-05-07T13:28:45.398Z,52.37
2023-05-07T13:30:25.830Z,51.82
2023-05-07T13:32:06.311Z,51.32
2023-05-07T13:33:46.537Z,50.29
2023-05-07T13:35:27.006Z,51.97
2023-05-07T13:38:47.871Z,51.56
2023-05-07T13:40:28.368Z,51.64
2023-05-07T13:42:08.737Z,51.07
2023-05-07T13:43:49.051Z,51.8
2023-05-07T13:45:36.530Z,50.73
2023-05-07T13:47:09.834Z,51.42
2023-05-07T13:48:50.210Z,52.22
2023-05-07T13:50:30.614Z,52.24
2023-05-07T13:52:11.048Z,53.11
2023-05-07T13:53:51.510Z,52.07
2023-05-07T13:55:31.913Z,50.25
2023-05-07T13:57:15.439Z,52.35
2023-05-07T13:58:59.877Z,52.13
2023-05-07T14:00:33.201Z,51.7
2023-05-07T14:02:13.700Z,50.85
2023-05-07T14:03:54.205Z,51.41
2023-05-07T14:05:34.401Z,49.8
2023-05-07T14:07:14.807Z,49.55
2023-05-07T14:08:55.239Z,48.38
2023-05-07T14:10:35.597Z,49.12
2023-05-07T14:12:16.032Z,49.03
2023-05-07T14:13:56.407Z,49.67
2023-05-07T14:15:36.778Z,48.49
2023-05-07T14:17:17.261Z,48.75
2023-05-07T14:18:58.462Z,47.92
2023-05-07T14:20:38.068Z,49.56
2023-05-07T14:22:18.483Z,48.35
2023-05-07T14:23:58.916Z,48.54
2023-05-07T14:25:39.293Z,48.81
2023-05-07T14:27:19.733Z,47.78
2023-05-07T14:29:00.189Z,47.28
2023-05-07T14:30:40.672Z,49.11
2023-05-07T14:32:21.124Z,49.68
2023-05-07T14:34:01.460Z,48.98
2023-05-07T14:35:41.932Z,48.56
2023-05-07T14:37:22.369Z,48.95
2023-05-07T14:39:02.794Z,49.56
2023-05-07T14:40:43.191Z,49.16
2023-05-07T14:42:23.573Z,49.13
2023-05-07T14:44:03.982Z,49.31
2023-05-07T14:45:44.383Z,51.01
2023-05-07T14:47:24.847Z,50.41
2023-05-07T14:49:05.196Z,49.92
2023-05-07T14:50:45.673Z,49.56
2023-05-07T14:52:25.976Z,49.99
2023-05-07T14:54:06.387Z,50.91
2023-05-07T14:55:46.822Z,51.46
2023-05-07T14:57:27.162Z,51.34
2023-05-07T14:59:07.548Z,51.63
2023-05-07T15:00:48.022Z,53.36
2023-05-07T15:02:28.507Z,52.92
2023-05-07T15:04:09.085Z,53.13
2023-05-07T15:05:49.338Z,53.22
2023-05-07T15:07:29.796Z,53.48
2023-05-07T15:09:10.168Z,54.19
2023-05-07T15:10:50.572Z,55.03
2023-05-07T15:12:31.051Z,55.73
2023-05-07T15:14:11.464Z,56.33
2023-05-07T15:15:52.068Z,57.42
2023-05-07T15:17:32.377Z,57.95
2023-05-07T15:19:12.713Z,57.99
2023-05-07T15:20:53.146Z,58.64
2023-05-07T15:22:33.567Z,58.42
2023-05-07T15:24:13.908Z,59.07
2023-05-07T15:25:54.403Z,59.79
2023-05-07T15:27:34.884Z,61.96
2023-05-07T15:29:15.382Z,60.96
2023-05-07T15:30:56.395Z,61.55
2023-05-07T15:32:36.258Z,60.47
2023-05-07T15:34:16.685Z,60.35
2023-05-07T15:35:57.261Z,60.81
2023-05-07T15:37:37.570Z,60.61
2023-05-07T15:39:17.979Z,61.12
2023-05-07T15:40:58.416Z,62.01
2023-05-07T15:42:38.900Z,60.61
2023-05-07T15:44:19.306Z,61.47
2023-05-07T15:45:59.746Z,61.55
2023-05-07T15:47:40.069Z,60.31
2023-05-07T15:49:20.563Z,60.66
2023-05-07T15:51:00.970Z,60.13
2023-05-07T15:52:41.257Z,60.71
2023-05-07T15:54:21.604Z,61.79
2023-05-07T15:56:02.017Z,61.72
2023-05-07T15:57:42.540Z,61.48
2023-05-07T15:59:22.869Z,62.67
2023-05-07T16:01:03.228Z,62.17
2023-05-07T16:02:43.691Z,62.47
2023-05-07T16:04:24.044Z,61.95
2023-05-07T16:06:04.549Z,62.31
2023-05-07T16:07:44.915Z,61.61
2023-05-07T16:09:25.355Z,62.15
2023-05-07T16:11:05.769Z,61.93
2023-05-07T16:12:46.199Z,62.2
2023-05-07T16:14:26.606Z,62.29
2023-05-07T16:16:06.996Z,62.53
2023-05-07T16:17:47.540Z,62.26
2023-05-07T16:19:28.828Z,63.14
2023-05-07T16:21:08.333Z,63.48
2023-05-07T16:22:48.772Z,63.07
2023-05-07T16:24:29.268Z,63.94
2023-05-07T16:26:09.764Z,63.54
2023-05-07T16:27:50.222Z,63.32
2023-05-07T16:29:30.595Z,64.21
2023-05-07T16:31:11.070Z,64.3
2023-05-07T16:32:51.546Z,64.14
2023-05-07T16:34:32.565Z,64.38
2023-05-07T16:36:12.299Z,65.18
2023-05-07T16:37:52.769Z,64.48
2023-05-07T16:39:36.247Z,64.85
2023-05-07T16:41:13.581Z,64.97
2023-05-07T16:42:55.510Z,65.07
2023-05-07T16:44:34.435Z,65.05
2023-05-07T16:46:14.934Z,65.69
2023-05-07T16:47:55.391Z,65.41
2023-05-07T16:49:35.804Z,64.51
2023-05-07T16:51:16.163Z,64.68
2023-05-07T16:52:56.549Z,65.19
2023-05-07T16:54:36.996Z,65.62
2023-05-07T16:56:17.337Z,64.69
2023-05-07T16:57:57.705Z,64.72
2023-05-07T16:59:38.232Z,65.03
2023-05-07T17:01:18.633Z,65.41
2023-05-07T17:02:59.126Z,64.56
2023-05-07T17:04:42.584Z,65.34
2023-05-07T17:06:19.895Z,65.29
2023-05-07T17:08:00.285Z,66.16
2023-05-07T17:09:40.734Z,66.12
2023-05-07T17:11:21.065Z,66.36
2023-05-07T17:13:01.465Z,66.69
2023-05-07T17:14:41.778Z,66.11
2023-05-07T17:16:22.158Z,66.75
2023-05-07T17:18:02.704Z,66.76
2023-05-07T17:19:43.007Z,67.07
2023-05-07T17:21:23.505Z,67.35
2023-05-07T17:23:03.991Z,67.28
2023-05-07T17:24:44.382Z,67.4
2023-05-07T17:26:24.841Z,67.59
2023-05-07T17:28:05.240Z,67.52
2023-05-07T17:29:45.671Z,68.11
2023-05-07T17:31:26.347Z,68.58
2023-05-07T17:33:19.327Z,68.05
2023-05-07T17:34:46.968Z,68.55
2023-05-07T17:36:27.428Z,68.32
2023-05-07T17:38:07.871Z,68.49
2023-05-07T17:39:48.247Z,68.38
2023-05-07T17:41:28.645Z,68.79
2023-05-07T17:43:09.108Z,68.6
2023-05-07T17:44:49.489Z,68.69
2023-05-07T17:46:29.999Z,69.2
2023-05-07T17:48:10.376Z,69.07
2023-05-07T17:49:50.769Z,69.49
2023-05-07T17:51:39.034Z,69.88
2023-05-07T17:53:11.591Z,69.76
2023-05-07T17:54:52.058Z,70.09
2023-05-07T17:56:32.482Z,69.87
2023-05-07T17:58:15.956Z,70.61
2023-05-07T17:59:53.349Z,70.53
2023-05-07T18:01:33.727Z,70.77
2023-05-07T18:03:14.328Z,70.57
2023-05-07T18:04:54.618Z,70.41
2023-05-07T18:06:35.081Z,70.89
2023-05-07T18:08:15.511Z,70.81
2023-05-07T18:09:55.956Z,71.44
2023-05-07T18:11:36.404Z,71.25
2023-05-07T18:13:16.864Z,71.42
2023-05-07T18:14:57.230Z,71.59
2023-05-07T18:16:37.698Z,71.92
2023-05-07T18:18:17.947Z,72.19
2023-05-07T18:19:58.353Z,72.43
2023-05-07T18:21:41.797Z,72.43
2023-05-07T18:23:19.157Z,72.68
2023-05-07T18:24:59.590Z,72.54
2023-05-07T18:26:40.023Z,72.14
2023-05-07T18:28:20.378Z,72.55
2023-05-07T18:30:00.753Z,72.82
2023-05-07T18:31:41.207Z,73.1
2023-05-07T18:33:21.593Z,72.84
2023-05-07T18:35:02.044Z,72.98
2023-05-07T18:36:42.496Z,72.99
2023-05-07T18:38:22.911Z,73.17
2023-05-07T18:40:03.294Z,73.19
2023-05-07T18:41:43.704Z,73.35
2023-05-07T18:43:24.102Z,73.74
2023-05-07T18:45:04.515Z,73.69
2023-05-07T18:46:44.884Z,73.51
2023-05-07T18:48:25.299Z,73.87
2023-05-07T18:50:08.037Z,73.93
2023-05-07T18:51:46.141Z,73.98
2023-05-07T18:53:26.582Z,74.33
2023-05-07T18:55:07.018Z,74.04
2023-05-07T18:56:47.473Z,74.14
2023-05-07T18:58:27.902Z,74.22
2023-05-07T19:00:08.251Z,74.23
2023-05-07T19:01:48.758Z,74.54
2023-05-07T19:03:28.997Z,74.58
2023-05-07T19:05:09.405Z,74.45
2023-05-07T19:06:49.765Z,74.78
2023-05-07T19:08:30.094Z,75.03
2023-05-07T19:10:10.561Z,75.27
2023-05-07T19:11:50.918Z,75.53
2023-05-07T19:13:31.484Z,75.5
2023-05-07T19:15:11.869Z,75.57
2023-05-07T19:16:52.206Z,75.46
2023-05-07T19:18:32.637Z,75.92
2023-05-07T19:20:13.081Z,76.03
2023-05-07T19:21:53.469Z,76.04
2023-05-07T19:23:33.902Z,75.93
2023-05-07T19:25:14.539Z,76.17
2023-05-07T19:26:54.733Z,76.18
2023-05-07T19:28:36.594Z,76.48
2023-05-07T19:30:15.578Z,76.41
2023-05-07T19:31:56.079Z,76.77
2023-05-07T19:33:36.470Z,76.73
2023-05-07T19:35:16.831Z,76.94
2023-05-07T19:36:57.236Z,76.96
2023-05-07T19:38:37.666Z,77.13
2023-05-07T19:40:17.997Z,77.28
2023-05-07T19:41:58.266Z,77.38
2023-05-07T19:43:38.831Z,77.46
2023-05-07T19:45:19.235Z,76.89
2023-05-07T19:46:59.576Z,76.82
2023-05-07T19:48:39.991Z,77.07
2023-05-07T19:50:20.380Z,77.15
2023-05-07T19:52:00.795Z,77.35
2023-05-07T19:53:41.210Z,77.56
2023-05-07T19:55:21.645Z,77.38
2023-05-07T19:57:02.077Z,77.48
2023-05-07T19:58:42.421Z,77.66
2023-05-07T20:00:22.850Z,77.59
2023-05-07T20:02:06.304Z,77.41
2023-05-07T20:03:43.758Z,77.55
2023-05-07T20:05:23.974Z,77.87
2023-05-07T20:07:07.467Z,78.07
2023-05-07T20:08:44.841Z,78.31
2023-05-07T20:10:25.277Z,78.5
2023-05-07T20:12:05.726Z,78.6
2023-05-07T20:13:46.173Z,78.46
2023-05-07T20:15:26.488Z,78.74
2023-05-07T20:17:06.916Z,78.69
2023-05-07T20:18:47.381Z,78.98
2023-05-07T20:20:27.920Z,79.26
2023-05-07T20:22:08.235Z,79.45
2023-05-07T20:23:48.729Z,79.6
2023-05-07T20:25:29.085Z,79.74
2023-05-07T20:27:09.511Z,79.48
2023-05-07T20:28:49.833Z,79.91
2023-05-07T20:30:30.301Z,80.15
2023-05-07T20:32:10.794Z,79.84
2023-05-07T20:33:51.101Z,79.8
2023-05-07T20:35:31.464Z,79.82
2023-05-07T20:37:11.970Z,79.78
2023-05-07T20:38:52.471Z,79.96
2023-05-07T20:40:32.836Z,80.01
2023-05-07T20:42:13.124Z,80.68
2023-05-07T20:43:53.422Z,80.36
2023-05-07T20:45:33.929Z,80.5
2023-05-07T20:47:14.207Z,80.3
2023-05-07T20:48:54.627Z,80.19
2023-05-07T20:50:34.954Z,80.2
2023-05-07T20:52:15.349Z,80.24
2023-05-07T20:53:55.776Z,80.31
2023-05-07T20:55:36.141Z,80.29
2023-05-07T20:57:16.597Z,80.53
2023-05-07T20:58:57.054Z,80.49
2023-05-07T21:00:37.517Z,80.61
2023-05-07T21:02:17.864Z,80.66
2023-05-07T21:03:58.263Z,80.58
2023-05-07T21:05:38.624Z,81.09
2023-05-07T21:07:19.019Z,81.04
2023-05-07T21:08:59.485Z,81.35
2023-05-07T21:10:39.848Z,81.44
2023-05-07T21:12:20.229Z,81.71
2023-05-07T21:14:00.584Z,81.69
2023-05-07T21:15:40.982Z,81.55
2023-05-07T21:17:21.393Z,81.6
2023-05-07T21:19:01.717Z,81.54
2023-05-07T21:20:42.078Z,81.52
2023-05-07T21:22:22.516Z,81.55
2023-05-07T21:24:02.861Z,81.32
2023-05-07T21:25:43.199Z,81.38
2023-05-07T21:27:23.583Z,81.31
2023-05-07T21:29:04.013Z,81.65
2023-05-07T21:30:44.457Z,81.65
2023-05-07T21:32:24.865Z,81.62
2023-05-07T21:34:05.277Z,81.79
2023-05-07T21:35:45.623Z,81.91
2023-05-07T21:37:26.024Z,82.46
2023-05-07T21:39:06.369Z,82.53